createdAt,value
2022-11-29T00:01:18.914Z,75.50
2022-11-29T00:03:45.775Z,76.80
2022-11-29T00:06:27.083Z,74.70
2022-11-29T00:08:55.981Z,76.70
2022-11-29T00:11:43.677Z,75.80
2022-11-29T00:14:13.634Z,76.00
2022-11-29T00:16:43.168Z,76.10
2022-11-29T00:19:11.783Z,74.40
2022-11-29T00:21:38.743Z,75.80
2022-11-29T00:24:06.069Z,75.20
2022-11-29T00:26:32.838Z,75.40
2022-11-29T00:28:59.578Z,75.20
2022-11-29T00:31:32.561Z,75.30
2022-11-29T00:34:01.050Z,76.60
2022-11-29T00:36:28.366Z,76.10
2022-11-29T00:38:55.189Z,75.80
2022-11-29T00:41:22.070Z,75.30
2022-11-29T00:43:48.807Z,75.60
2022-11-29T00:46:15.552Z,75.50
2022-11-29T00:48:42.273Z,75.40
2022-11-29T00:51:09.557Z,75.50
2022-11-29T00:53:37.237Z,76.00
2022-11-29T00:56:05.362Z,76.40
2022-11-29T00:58:35.050Z,76.30
2022-11-29T01:01:02.024Z,76.50
2022-11-29T01:03:28.746Z,75.80
2022-11-29T01:06:10.401Z,75.80
2022-11-29T01:08:37.432Z,77.60
2022-11-29T01:11:22.156Z,75.70
2022-11-29T01:13:50.115Z,77.80
2022-11-29T01:16:18.052Z,76.40
2022-11-29T01:18:45.302Z,76.40
2022-11-29T01:21:15.390Z,76.10
2022-11-29T01:23:43.281Z,77.00
2022-11-29T01:26:13.687Z,76.30
2022-11-29T01:28:41.025Z,76.80
2022-11-29T01:31:18.778Z,75.70
2022-11-29T01:33:46.154Z,76.50
2022-11-29T01:36:14.324Z,75.60
2022-11-29T01:38:44.524Z,76.50
2022-11-29T01:41:29.286Z,76.20
2022-11-29T01:44:11.423Z,77.70
2022-11-29T01:46:40.750Z,77.30
2022-11-29T01:49:16.504Z,77.00
2022-11-29T01:52:04.838Z,77.50
2022-11-29T01:54:34.344Z,76.50
2022-11-29T01:57:04.357Z,76.20
2022-11-29T01:59:31.385Z,77.10
2022-11-29T02:02:05.378Z,76.00
2022-11-29T02:04:34.798Z,77.30
2022-11-29T02:07:01.822Z,76.70
2022-11-29T02:09:28.481Z,75.40
2022-11-29T02:12:15.146Z,75.30
2022-11-29T02:15:27.188Z,76.80
2022-11-29T02:18:29.252Z,77.20
2022-11-29T02:21:21.673Z,77.20
2022-11-29T02:24:07.374Z,76.90
2022-11-29T02:27:00.079Z,76.90
2022-11-29T02:30:00.418Z,77.20
2022-11-29T02:32:59.909Z,77.20
2022-11-29T02:36:09.879Z,76.90
2022-11-29T02:39:02.905Z,77.00
2022-11-29T02:41:50.707Z,76.90
2022-11-29T02:44:44.651Z,76.90
2022-11-29T02:47:20.689Z,77.20
2022-11-29T02:50:29.675Z,77.70
2022-11-29T02:53:18.102Z,77.60
2022-11-29T02:55:44.762Z,76.90
2022-11-29T02:58:26.379Z,75.70
2022-11-29T03:01:13.076Z,78.10
2022-11-29T03:04:05.548Z,77.40
2022-11-29T03:06:35.351Z,77.00
2022-11-29T03:09:18.469Z,75.00
2022-11-29T03:12:02.785Z,77.80
2022-11-29T03:14:43.886Z,77.90
2022-11-29T03:17:55.890Z,77.40
2022-11-29T03:20:42.421Z,78.20
2022-11-29T03:23:20.130Z,78.80
2022-11-29T03:25:59.922Z,77.40
2022-11-29T03:28:54.936Z,77.70
2022-11-29T03:31:36.997Z,78.10
2022-11-29T03:34:30.483Z,77.70
2022-11-29T03:37:19.934Z,77.70
2022-11-29T03:40:04.767Z,77.80
2022-11-29T03:42:38.527Z,77.70
2022-11-29T03:45:10.934Z,78.80
2022-11-29T03:47:51.506Z,75.40
2022-11-29T03:50:25.958Z,77.30
2022-11-29T03:53:03.843Z,78.00
2022-11-29T03:55:46.342Z,77.40
2022-11-29T03:58:38.362Z,77.70
2022-11-29T04:01:29.211Z,77.70
2022-11-29T04:04:23.633Z,78.10
2022-11-29T04:06:56.140Z,78.00
2022-11-29T04:09:43.961Z,75.80
2022-11-29T04:12:25.703Z,77.90
2022-11-29T04:15:17.126Z,77.80
2022-11-29T04:18:25.177Z,77.90
2022-11-29T04:21:06.969Z,78.00
2022-11-29T04:24:03.983Z,78.80
2022-11-29T04:27:27.895Z,78.00
2022-11-29T04:30:05.012Z,78.20
2022-11-29T04:32:59.359Z,78.30
2022-11-29T04:36:11.218Z,78.10
2022-11-29T04:39:02.383Z,78.70
2022-11-29T04:41:44.238Z,78.60
2022-11-29T04:44:19.844Z,78.30
2022-11-29T04:47:15.834Z,78.30
2022-11-29T04:50:05.052Z,78.00
2022-11-29T04:53:09.078Z,78.50
2022-11-29T04:55:44.509Z,78.80
2022-11-29T04:58:40.648Z,76.20
2022-11-29T05:01:20.802Z,78.90
2022-11-29T05:04:02.578Z,78.40
2022-11-29T05:07:02.892Z,78.90
2022-11-29T05:09:37.461Z,79.10
2022-11-29T05:12:28.981Z,78.70
2022-11-29T05:15:38.373Z,78.20
2022-11-29T05:18:14.076Z,78.40
2022-11-29T05:20:58.816Z,76.40
2022-11-29T05:23:39.826Z,78.40
2022-11-29T05:26:33.697Z,78.50
2022-11-29T05:29:11.731Z,78.00
2022-11-29T05:31:47.581Z,78.30
2022-11-29T05:34:41.405Z,76.10
2022-11-29T05:37:22.196Z,78.60
2022-11-29T05:39:56.039Z,78.80
2022-11-29T05:42:44.308Z,78.40
2022-11-29T05:45:22.125Z,78.60
2022-11-29T05:48:07.118Z,77.80
2022-11-29T05:50:40.155Z,78.60
2022-11-29T05:53:45.245Z,79.10
2022-11-29T05:56:25.173Z,78.10
2022-11-29T05:58:58.926Z,77.50
2022-11-29T06:01:39.488Z,77.80
2022-11-29T06:04:14.740Z,77.90
2022-11-29T06:07:03.530Z,76.60
2022-11-29T06:09:48.144Z,78.30
2022-11-29T06:12:22.185Z,78.30
2022-11-29T06:15:33.721Z,77.90
2022-11-29T06:18:22.057Z,78.20
2022-11-29T06:21:02.786Z,77.50
2022-11-29T06:24:08.686Z,77.80
2022-11-29T06:27:07.263Z,78.10
2022-11-29T06:29:51.959Z,78.00
2022-11-29T06:33:01.162Z,77.90
2022-11-29T06:35:35.428Z,78.00
2022-11-29T06:38:11.290Z,77.50
2022-11-29T06:40:38.250Z,78.20
2022-11-29T06:43:05.110Z,76.70
2022-11-29T06:45:32.270Z,76.70
2022-11-29T06:48:03.661Z,77.00
2022-11-29T06:50:48.360Z,78.30
2022-11-29T06:53:30.380Z,78.20
2022-11-29T06:56:06.274Z,75.90
2022-11-29T06:58:51.189Z,75.70
2022-11-29T07:01:44.296Z,77.70
2022-11-29T07:04:46.347Z,78.40
2022-11-29T07:07:21.472Z,77.80
2022-11-29T07:09:51.433Z,78.20
2022-11-29T07:12:18.816Z,77.80
2022-11-29T07:14:46.629Z,76.90
2022-11-29T07:17:39.673Z,77.20
2022-11-29T07:20:38.839Z,77.80
2022-11-29T07:23:30.466Z,77.80
2022-11-29T07:26:15.299Z,78.50
2022-11-29T07:29:10.500Z,77.70
2022-11-29T07:31:51.011Z,77.80
2022-11-29T07:34:38.486Z,78.10
2022-11-29T07:37:14.336Z,75.30
2022-11-29T07:40:01.314Z,77.10
2022-11-29T07:43:04.599Z,77.20
2022-11-29T07:45:36.088Z,78.00
2022-11-29T07:48:03.284Z,77.10
2022-11-29T07:50:30.629Z,76.20
2022-11-29T07:52:57.839Z,76.00
2022-11-29T07:55:26.374Z,75.50
2022-11-29T07:57:53.675Z,76.10
2022-11-29T08:00:20.991Z,75.50
2022-11-29T08:02:49.052Z,75.80
2022-11-29T08:05:16.374Z,74.70
2022-11-29T08:07:43.280Z,75.70
2022-11-29T08:10:16.151Z,75.40
2022-11-29T08:12:48.686Z,77.00
2022-11-29T08:15:15.965Z,77.00
2022-11-29T08:17:42.773Z,75.70
2022-11-29T08:20:10.970Z,76.40
2022-11-29T08:22:38.035Z,76.60
2022-11-29T08:25:06.524Z,76.00
2022-11-29T08:27:34.162Z,76.40
2022-11-29T08:30:00.802Z,75.70
2022-11-29T08:32:27.914Z,75.30
2022-11-29T08:34:54.802Z,75.20
2022-11-29T08:37:21.764Z,75.40
2022-11-29T08:39:48.657Z,75.00
2022-11-29T08:42:15.391Z,75.90
2022-11-29T08:44:42.085Z,75.30
2022-11-29T08:47:28.925Z,74.80
2022-11-29T08:50:01.746Z,75.70
2022-11-29T08:52:53.498Z,74.60
2022-11-29T08:55:22.958Z,76.80
2022-11-29T08:57:51.185Z,75.80
2022-11-29T09:00:21.132Z,75.50
2022-11-29T09:02:48.442Z,75.60
2022-11-29T09:05:15.740Z,75.10
2022-11-29T09:07:43.060Z,74.20
2022-11-29T09:10:11.538Z,74.30
2022-11-29T09:12:39.721Z,75.00
2022-11-29T09:15:11.106Z,75.30
2022-11-29T09:17:38.194Z,75.20
2022-11-29T09:20:05.962Z,74.40
2022-11-29T09:22:32.663Z,74.40
2022-11-29T09:24:59.339Z,73.90
2022-11-29T09:27:25.987Z,75.10
2022-11-29T09:29:52.605Z,73.80
2022-11-29T09:32:19.316Z,74.10
2022-11-29T09:34:46.402Z,74.00
2022-11-29T09:37:13.342Z,73.90
2022-11-29T09:39:41.555Z,73.70
2022-11-29T09:42:32.378Z,73.70
2022-11-29T09:45:02.634Z,75.90
2022-11-29T09:47:50.261Z,73.70
2022-11-29T09:50:31.097Z,75.50
2022-11-29T09:53:31.726Z,75.20
2022-11-29T09:56:36.910Z,75.80
2022-11-29T09:59:09.702Z,75.10
2022-11-29T10:01:45.166Z,75.10
2022-11-29T10:04:19.821Z,75.10
2022-11-29T10:06:58.300Z,75.10
2022-11-29T10:09:38.322Z,74.40
2022-11-29T10:12:34.898Z,74.20
2022-11-29T10:15:29.527Z,75.20
2022-11-29T10:18:03.191Z,75.60
2022-11-29T10:20:39.158Z,74.90
2022-11-29T10:23:25.449Z,74.50
2022-11-29T10:25:54.809Z,74.50
2022-11-29T10:28:30.500Z,74.10
2022-11-29T10:31:03.150Z,74.90
2022-11-29T10:33:38.773Z,74.30
2022-11-29T10:36:36.810Z,74.30
2022-11-29T10:39:14.673Z,73.90
2022-11-29T10:41:41.554Z,74.20
2022-11-29T10:44:13.057Z,72.10
2022-11-29T10:46:39.907Z,73.60
2022-11-29T10:49:12.621Z,72.00
2022-11-29T10:51:39.471Z,73.80
2022-11-29T10:54:33.740Z,72.20
2022-11-29T10:57:01.689Z,73.90
2022-11-29T10:59:30.671Z,73.70
2022-11-29T11:01:58.158Z,73.40
2022-11-29T11:04:29.898Z,72.70
2022-11-29T11:07:01.111Z,73.90
2022-11-29T11:09:44.075Z,73.40
2022-11-29T11:12:13.826Z,74.00
2022-11-29T11:14:41.563Z,73.40
2022-11-29T11:17:26.320Z,72.20
2022-11-29T11:20:01.446Z,74.30
2022-11-29T11:22:29.630Z,74.00
2022-11-29T11:25:25.535Z,72.60
2022-11-29T11:27:52.307Z,73.20
2022-11-29T11:30:28.545Z,71.90
2022-11-29T11:33:28.906Z,73.20
2022-11-29T11:36:07.011Z,73.90
2022-11-29T11:38:36.065Z,73.10
2022-11-29T11:41:14.774Z,71.90
2022-11-29T11:43:41.575Z,70.40
2022-11-29T11:46:08.617Z,71.40
2022-11-29T11:48:36.190Z,71.40
2022-11-29T11:51:03.122Z,71.60
2022-11-29T11:53:37.940Z,71.70
2022-11-29T11:56:08.244Z,73.40
2022-11-29T11:58:39.567Z,72.90
2022-11-29T12:01:12.443Z,73.50
2022-11-29T12:03:54.618Z,74.00
2022-11-29T12:06:39.466Z,73.50
2022-11-29T12:09:09.833Z,71.10
2022-11-29T12:11:44.296Z,73.20
2022-11-29T12:14:21.792Z,72.90
2022-11-29T12:16:50.123Z,72.90
2022-11-29T12:19:28.277Z,72.10
2022-11-29T12:22:01.766Z,73.70
2022-11-29T12:24:35.475Z,73.90
2022-11-29T12:27:05.785Z,71.30
2022-11-29T12:29:34.716Z,73.20
2022-11-29T12:32:46.128Z,72.20
2022-11-29T12:35:35.077Z,72.90
2022-11-29T12:38:23.913Z,71.90
2022-11-29T12:41:18.956Z,72.30
2022-11-29T12:43:57.811Z,72.60
2022-11-29T12:46:27.740Z,72.70
2022-11-29T12:49:23.057Z,71.80
2022-11-29T12:52:11.519Z,72.30
2022-11-29T12:54:57.943Z,71.90
2022-11-29T12:57:43.129Z,72.40
2022-11-29T13:00:13.495Z,69.70
2022-11-29T13:03:01.808Z,70.50
2022-11-29T13:05:54.119Z,72.50
2022-11-29T13:08:23.848Z,72.30
2022-11-29T13:11:17.309Z,69.90
2022-11-29T13:13:49.292Z,72.40
2022-11-29T13:16:36.318Z,72.20
2022-11-29T13:19:22.394Z,72.40
2022-11-29T13:22:16.018Z,72.40
2022-11-29T13:24:47.427Z,72.80
2022-11-29T13:27:20.689Z,72.30
2022-11-29T13:29:48.637Z,72.90
2022-11-29T13:32:24.458Z,72.20
2022-11-29T13:34:53.034Z,73.30
2022-11-29T13:37:55.309Z,72.50
2022-11-29T13:40:53.862Z,74.00
2022-11-29T13:43:31.421Z,73.80
2022-11-29T13:46:19.543Z,73.50
2022-11-29T13:48:49.560Z,74.60
2022-11-29T13:51:40.561Z,73.60
2022-11-29T13:54:34.063Z,74.40
2022-11-29T13:57:09.329Z,73.90
2022-11-29T13:59:45.759Z,74.30
2022-11-29T14:02:30.556Z,73.90
2022-11-29T14:04:57.391Z,74.60
2022-11-29T14:07:24.196Z,72.50
2022-11-29T14:10:01.106Z,72.20
2022-11-29T14:13:04.795Z,74.50
2022-11-29T14:15:33.230Z,71.30
2022-11-29T14:18:02.865Z,72.40
2022-11-29T14:20:29.556Z,73.20
2022-11-29T14:23:05.378Z,72.00
2022-11-29T14:25:51.047Z,74.30
2022-11-29T14:28:21.464Z,73.20
2022-11-29T14:30:53.519Z,71.50
2022-11-29T14:33:40.725Z,73.90
2022-11-29T14:36:31.409Z,73.90
2022-11-29T14:39:33.956Z,74.10
2022-11-29T14:42:21.960Z,74.20
2022-11-29T14:44:55.934Z,75.70
2022-11-29T14:47:34.358Z,73.70
2022-11-29T14:50:05.366Z,74.70
2022-11-29T14:52:51.264Z,73.80
2022-11-29T14:55:17.911Z,75.10
2022-11-29T14:57:47.820Z,73.00
2022-11-29T15:00:19.258Z,74.90
2022-11-29T15:02:55.010Z,74.90
2022-11-29T15:05:27.086Z,75.30
2022-11-29T15:08:18.900Z,73.20
2022-11-29T15:11:14.556Z,75.40
2022-11-29T15:14:04.535Z,75.20
2022-11-29T15:16:52.760Z,75.10
2022-11-29T15:19:43.415Z,75.50
2022-11-29T15:22:20.403Z,75.90
2022-11-29T15:25:18.351Z,75.60
2022-11-29T15:27:56.322Z,76.30
2022-11-29T15:30:38.222Z,76.30
2022-11-29T15:33:27.265Z,75.80
2022-11-29T15:36:04.997Z,75.70
2022-11-29T15:38:51.517Z,76.20
2022-11-29T15:41:23.157Z,76.40
2022-11-29T15:43:53.819Z,76.00
2022-11-29T15:46:24.550Z,75.90
2022-11-29T15:48:51.385Z,75.40
2022-11-29T15:51:28.238Z,74.60
2022-11-29T15:54:13.613Z,76.60
2022-11-29T15:56:52.043Z,76.30
2022-11-29T15:59:33.821Z,76.20
2022-11-29T16:02:07.663Z,76.30
2022-11-29T16:04:42.191Z,76.40
2022-11-29T16:07:12.309Z,76.50
2022-11-29T16:09:44.914Z,75.20
2022-11-29T16:12:17.807Z,76.70
2022-11-29T16:14:58.956Z,76.70
2022-11-29T16:17:31.501Z,76.40
2022-11-29T16:20:17.610Z,76.80
2022-11-29T16:22:44.461Z,77.10
2022-11-29T16:25:19.659Z,74.60
2022-11-29T16:27:47.475Z,76.50
2022-11-29T16:30:22.730Z,75.20
2022-11-29T16:32:55.815Z,76.60
2022-11-29T16:35:26.186Z,76.30
2022-11-29T16:37:53.006Z,75.90
2022-11-29T16:40:34.501Z,74.90
2022-11-29T16:43:03.918Z,76.80
2022-11-29T16:45:41.659Z,76.20
2022-11-29T16:48:25.416Z,76.70
2022-11-29T16:51:13.613Z,76.80
2022-11-29T16:53:47.512Z,77.10
2022-11-29T16:56:16.520Z,76.40
2022-11-29T16:59:21.081Z,75.90
2022-11-29T17:01:32.500Z,75.40
2022-11-29T17:04:00.433Z,74.50
2022-11-29T17:06:29.394Z,75.20
2022-11-29T17:08:57.882Z,75.70
2022-11-29T17:11:25.044Z,75.70
2022-11-29T17:13:52.077Z,75.20
2022-11-29T17:16:21.568Z,74.90
2022-11-29T17:18:49.044Z,75.80
2022-11-29T17:21:23.086Z,74.60
2022-11-29T17:23:49.849Z,75.80
2022-11-29T17:26:17.130Z,74.60
2022-11-29T17:28:45.038Z,74.90
2022-11-29T17:31:17.173Z,75.10
2022-11-29T17:33:44.224Z,75.00
2022-11-29T17:36:15.213Z,74.30
2022-11-29T17:38:43.037Z,76.30
2022-11-29T17:41:14.872Z,74.60
2022-11-29T17:43:41.804Z,76.20
2022-11-29T17:46:12.584Z,74.30
2022-11-29T17:48:39.756Z,73.90
2022-11-29T17:51:22.775Z,74.30
2022-11-29T17:53:54.874Z,75.10
2022-11-29T17:56:24.647Z,73.90
2022-11-29T17:58:53.536Z,75.20
2022-11-29T18:01:22.597Z,75.00
2022-11-29T18:03:55.957Z,75.30
2022-11-29T18:06:27.697Z,74.70
2022-11-29T18:08:57.815Z,74.70
2022-11-29T18:11:26.840Z,75.10
2022-11-29T18:13:54.889Z,74.80
2022-11-29T18:16:25.125Z,74.30
2022-11-29T18:18:59.984Z,74.40
2022-11-29T18:21:26.974Z,75.30
2022-11-29T18:23:54.040Z,73.60
2022-11-29T18:26:23.306Z,73.70
2022-11-29T18:28:50.522Z,74.50
2022-11-29T18:31:23.134Z,73.90
2022-11-29T18:33:56.601Z,73.90
2022-11-29T18:36:34.932Z,74.10
2022-11-29T18:39:09.599Z,75.10
2022-11-29T18:41:37.189Z,75.20
2022-11-29T18:44:08.905Z,73.80
2022-11-29T18:46:37.728Z,74.90
2022-11-29T18:49:09.009Z,74.40
2022-11-29T18:51:37.059Z,73.60
2022-11-29T18:54:05.061Z,73.60
2022-11-29T18:56:34.439Z,73.50
2022-11-29T18:59:06.400Z,74.30
2022-11-29T19:01:35.135Z,74.90
2022-11-29T19:04:02.033Z,73.80
2022-11-29T19:06:39.205Z,73.10
2022-11-29T19:09:08.238Z,73.80
2022-11-29T19:11:35.291Z,73.70
2022-11-29T19:14:05.028Z,72.90
2022-11-29T19:16:34.148Z,74.00
2022-11-29T19:19:01.610Z,73.70
2022-11-29T19:21:31.660Z,73.80
2022-11-29T19:24:00.269Z,74.10
2022-11-29T19:26:28.736Z,74.30
2022-11-29T19:28:56.298Z,73.90
2022-11-29T19:31:25.140Z,73.70
2022-11-29T19:33:53.237Z,74.10
2022-11-29T19:36:22.674Z,73.40
2022-11-29T19:38:53.870Z,73.60
2022-11-29T19:41:22.672Z,72.90
2022-11-29T19:43:49.827Z,72.40
2022-11-29T19:46:19.957Z,72.80
2022-11-29T19:48:47.043Z,73.70
2022-11-29T19:51:17.382Z,72.70
2022-11-29T19:53:45.497Z,73.20
2022-11-29T19:56:14.849Z,72.60
2022-11-29T19:58:42.780Z,73.20
2022-11-29T20:01:15.304Z,72.60
2022-11-29T20:03:42.518Z,73.80
2022-11-29T20:06:09.870Z,72.40
2022-11-29T20:08:37.428Z,72.80
2022-11-29T20:11:10.169Z,72.50
2022-11-29T20:13:38.337Z,73.90
2022-11-29T20:16:09.451Z,72.50
2022-11-29T20:18:39.131Z,73.20
2022-11-29T20:21:07.845Z,73.00
2022-11-29T20:23:34.608Z,72.90
2022-11-29T20:26:01.759Z,71.70
2022-11-29T20:28:28.496Z,72.00
2022-11-29T20:30:56.659Z,71.90
2022-11-29T20:33:25.265Z,72.10
2022-11-29T20:36:04.866Z,72.90
2022-11-29T20:38:43.261Z,73.40
2022-11-29T20:41:21.792Z,73.50
2022-11-29T20:43:58.169Z,73.30
2022-11-29T20:46:25.837Z,73.90
2022-11-29T20:48:53.634Z,72.00
2022-11-29T20:51:28.725Z,72.20
2022-11-29T20:53:55.444Z,73.40
2022-11-29T20:56:22.157Z,71.50
2022-11-29T20:58:48.785Z,71.60
2022-11-29T21:01:15.758Z,71.70
2022-11-29T21:03:42.479Z,71.40
2022-11-29T21:06:09.170Z,71.50
2022-11-29T21:08:35.792Z,71.50
2022-11-29T21:11:09.005Z,71.30
2022-11-29T21:13:36.111Z,72.10
2022-11-29T21:16:03.563Z,72.10
2022-11-29T21:18:31.133Z,72.60
2022-11-29T21:21:23.794Z,72.60
2022-11-29T21:23:55.198Z,74.60
2022-11-29T21:26:41.329Z,74.30
2022-11-29T21:29:22.454Z,74.70
2022-11-29T21:31:52.125Z,74.20
2022-11-29T21:34:19.637Z,73.70
2022-11-29T21:36:55.832Z,73.20
2022-11-29T21:39:24.374Z,73.90
2022-11-29T21:41:51.285Z,73.40
2022-11-29T21:44:17.923Z,73.00
2022-11-29T21:46:44.653Z,72.80
2022-11-29T21:49:11.415Z,72.90
2022-11-29T21:51:38.142Z,72.80
2022-11-29T21:54:04.853Z,72.70
2022-11-29T21:56:31.599Z,72.70
2022-11-29T21:58:58.317Z,72.60
2022-11-29T22:01:27.059Z,72.80
2022-11-29T22:03:54.166Z,72.80
2022-11-29T22:06:23.973Z,73.50
2022-11-29T22:08:50.690Z,73.80
2022-11-29T22:11:30.664Z,73.40
2022-11-29T22:14:19.270Z,74.70
2022-11-29T22:16:47.552Z,75.40
2022-11-29T22:19:17.893Z,74.90
2022-11-29T22:21:47.396Z,75.70
2022-11-29T22:24:15.357Z,74.80
2022-11-29T22:26:43.655Z,74.20
2022-11-29T22:29:11.561Z,73.80
2022-11-29T22:31:38.302Z,74.30
2022-11-29T22:34:05.030Z,73.40
2022-11-29T22:36:31.790Z,73.40
2022-11-29T22:38:59.783Z,73.80
2022-11-29T22:41:26.643Z,73.50
2022-11-29T22:43:53.587Z,73.60
2022-11-29T22:46:22.151Z,73.80
2022-11-29T22:48:52.493Z,74.40
2022-11-29T22:51:24.165Z,74.60
2022-11-29T22:53:53.120Z,75.10
2022-11-29T22:56:21.123Z,74.30
2022-11-29T22:58:47.813Z,73.50
2022-11-29T23:01:17.081Z,73.10
2022-11-29T23:03:48.307Z,74.00
2022-11-29T23:06:17.043Z,74.10
2022-11-29T23:08:45.861Z,73.90
2022-11-29T23:11:15.501Z,73.80
2022-11-29T23:13:43.739Z,73.90
2022-11-29T23:16:13.188Z,74.00
2022-11-29T23:18:42.077Z,74.10
2022-11-29T23:21:11.756Z,72.90
2022-11-29T23:23:38.697Z,74.20
2022-11-29T23:26:06.838Z,72.70
2022-11-29T23:28:34.695Z,73.40
2022-11-29T23:31:01.638Z,73.20
2022-11-29T23:33:28.926Z,72.30
2022-11-29T23:36:06.371Z,73.00
2022-11-29T23:38:34.262Z,74.30
2022-11-29T23:41:01.278Z,73.20
2022-11-29T23:43:32.226Z,72.50
2022-11-29T23:45:59.443Z,73.70
2022-11-29T23:48:26.330Z,72.40
2022-11-29T23:50:52.999Z,72.30
2022-11-29T23:53:19.734Z,71.90
2022-11-29T23:56:02.361Z,71.90
2022-11-29T23:58:30.517Z,73.20
